createdAt,value
2023-02-10T00:00:20.181Z,57.30
2023-02-10T00:02:53.821Z,57.30
2023-02-10T00:05:28.622Z,57.30
2023-02-10T00:08:03.759Z,57.50
2023-02-10T00:10:37.491Z,57.50
2023-02-10T00:13:10.892Z,57.60
2023-02-10T00:15:44.524Z,57.60
2023-02-10T00:18:17.812Z,57.60
2023-02-10T00:20:53.128Z,57.60
2023-02-10T00:23:28.367Z,57.70
2023-02-10T00:26:05.911Z,57.80
2023-02-10T00:28:44.586Z,57.90
2023-02-10T00:31:20.239Z,57.80
2023-02-10T00:33:55.584Z,57.80
2023-02-10T00:36:30.405Z,57.90
2023-02-10T00:39:05.508Z,58.00
2023-02-10T00:41:39.383Z,58.10
2023-02-10T00:44:13.147Z,58.00
2023-02-10T00:46:46.957Z,58.10
2023-02-10T00:49:20.825Z,58.20
2023-02-10T00:51:54.775Z,58.20
2023-02-10T00:54:29.793Z,58.20
2023-02-10T00:57:03.331Z,58.40
2023-02-10T00:59:37.185Z,58.30
2023-02-10T01:02:10.956Z,59.00
2023-02-10T01:04:44.757Z,58.40
2023-02-10T01:07:18.517Z,58.50
2023-02-10T01:09:53.679Z,58.60
2023-02-10T01:12:27.398Z,58.50
2023-02-10T01:15:00.905Z,58.50
2023-02-10T01:17:34.414Z,58.50
2023-02-10T01:20:10.154Z,58.60
2023-02-10T01:22:43.890Z,58.60
2023-02-10T01:25:19.299Z,58.60
2023-02-10T01:27:52.608Z,58.80
2023-02-10T01:30:25.974Z,58.80
2023-02-10T01:32:59.393Z,58.80
2023-02-10T01:35:33.164Z,58.80
2023-02-10T01:38:07.071Z,59.00
2023-02-10T01:40:42.430Z,58.90
2023-02-10T01:43:17.920Z,59.00
2023-02-10T01:45:51.806Z,59.10
2023-02-10T01:48:27.582Z,59.10
2023-02-10T01:51:08.772Z,59.20
2023-02-10T01:53:43.774Z,59.30
2023-02-10T01:56:19.770Z,59.30
2023-02-10T01:58:53.536Z,59.40
2023-02-10T02:01:27.212Z,59.40
2023-02-10T02:04:03.830Z,59.50
2023-02-10T02:06:38.046Z,59.60
2023-02-10T02:09:12.571Z,59.60
2023-02-10T02:12:01.586Z,59.70
2023-02-10T02:14:47.265Z,59.80
2023-02-10T02:17:32.136Z,59.80
2023-02-10T02:20:52.609Z,59.80
2023-02-10T02:23:51.359Z,60.00
2023-02-10T02:26:46.309Z,60.00
2023-02-10T02:34:02.659Z,60.10
2023-02-10T02:36:44.446Z,59.80
2023-02-10T02:39:18.060Z,59.90
2023-02-10T02:42:18.256Z,59.90
2023-02-10T02:44:58.043Z,60.20
2023-02-10T02:48:03.428Z,60.00
2023-02-10T02:50:49.167Z,60.20
2023-02-10T02:53:33.750Z,60.10
2023-02-10T02:56:21.335Z,60.20
2023-02-10T02:59:01.525Z,60.10
2023-02-10T03:01:44.808Z,60.10
2023-02-10T03:04:20.801Z,60.10
2023-02-10T03:06:56.291Z,60.10
2023-02-10T03:09:31.094Z,60.00
2023-02-10T03:12:05.086Z,60.20
2023-02-10T03:14:38.865Z,60.10
2023-02-10T03:17:12.673Z,60.10
2023-02-10T03:19:46.288Z,60.20
2023-02-10T03:22:21.405Z,60.20
2023-02-10T03:24:55.528Z,60.40
2023-02-10T03:27:29.487Z,60.20
2023-02-10T03:30:03.062Z,60.40
2023-02-10T03:32:36.820Z,60.40
2023-02-10T03:35:10.692Z,60.40
2023-02-10T03:37:45.772Z,60.50
2023-02-10T03:40:19.997Z,60.50
2023-02-10T03:42:53.724Z,60.60
2023-02-10T03:45:27.703Z,60.60
2023-02-10T03:48:01.537Z,60.60
2023-02-10T03:50:35.208Z,60.70
2023-02-10T03:53:10.670Z,60.80
2023-02-10T03:55:44.109Z,60.80
2023-02-10T03:58:17.883Z,60.80
2023-02-10T04:00:51.309Z,60.80
2023-02-10T04:03:24.789Z,60.80
2023-02-10T04:05:58.582Z,60.80
2023-02-10T04:08:33.677Z,60.90
2023-02-10T04:11:09.188Z,61.00
2023-02-10T04:13:43.690Z,61.00
2023-02-10T04:16:21.058Z,61.10
2023-02-10T04:18:54.861Z,61.10
2023-02-10T04:21:28.615Z,61.10
2023-02-10T04:24:03.746Z,61.10
2023-02-10T04:26:37.444Z,61.90
2023-02-10T04:29:10.778Z,61.40
2023-02-10T04:31:44.510Z,61.40
2023-02-10T04:34:18.222Z,61.50
2023-02-10T04:36:52.041Z,61.50
2023-02-10T04:39:27.032Z,61.40
2023-02-10T04:42:00.707Z,61.50
2023-02-10T04:44:34.777Z,61.70
2023-02-10T04:47:08.091Z,61.70
2023-02-10T04:49:41.649Z,61.70
2023-02-10T04:52:15.471Z,61.70
2023-02-10T04:54:50.578Z,61.80
2023-02-10T04:57:24.216Z,61.80
2023-02-10T04:59:57.827Z,62.00
2023-02-10T05:02:31.706Z,62.00
2023-02-10T05:05:06.007Z,62.00
2023-02-10T05:07:39.379Z,62.00
2023-02-10T05:10:14.199Z,62.10
2023-02-10T05:12:47.796Z,62.20
2023-02-10T05:15:21.461Z,61.80
2023-02-10T05:17:54.862Z,62.30
2023-02-10T05:20:28.759Z,62.40
2023-02-10T05:23:05.446Z,62.40
2023-02-10T05:25:40.578Z,62.30
2023-02-10T05:28:14.107Z,62.40
2023-02-10T05:30:49.704Z,62.40
2023-02-10T05:33:23.598Z,62.50
2023-02-10T05:35:57.229Z,62.40
2023-02-10T05:38:31.119Z,62.50
2023-02-10T05:41:06.346Z,62.60
2023-02-10T05:43:41.420Z,62.60
2023-02-10T05:46:15.085Z,62.60
2023-02-10T05:48:48.792Z,62.60
2023-02-10T05:51:22.331Z,62.70
2023-02-10T05:53:56.138Z,62.70
2023-02-10T05:56:31.460Z,62.90
2023-02-10T05:59:05.375Z,62.90
2023-02-10T06:01:39.218Z,63.00
2023-02-10T06:04:13.473Z,63.00
2023-02-10T06:06:46.909Z,63.20
2023-02-10T06:09:22.309Z,63.20
2023-02-10T06:11:57.697Z,63.20
2023-02-10T06:14:31.329Z,63.40
2023-02-10T06:17:05.415Z,63.40
2023-02-10T06:19:39.658Z,63.50
2023-02-10T06:22:13.280Z,63.70
2023-02-10T06:24:47.228Z,63.60
2023-02-10T06:27:22.583Z,63.70
2023-02-10T06:29:57.044Z,63.90
2023-02-10T06:32:30.966Z,64.00
2023-02-10T06:35:05.036Z,64.10
2023-02-10T06:37:38.912Z,64.10
2023-02-10T06:40:13.625Z,64.20
2023-02-10T06:42:49.712Z,64.30
2023-02-10T06:45:22.985Z,64.40
2023-02-10T06:47:57.092Z,65.20
2023-02-10T06:50:31.608Z,64.30
2023-02-10T06:53:05.453Z,64.60
2023-02-10T06:55:39.030Z,64.60
2023-02-10T06:58:14.042Z,64.70
2023-02-10T07:00:48.690Z,64.70
2023-02-10T07:03:23.249Z,64.70
2023-02-10T07:05:57.303Z,64.70
2023-02-10T07:08:33.346Z,64.40
2023-02-10T07:11:07.260Z,64.50
2023-02-10T07:13:43.853Z,64.40
2023-02-10T07:16:17.954Z,64.10
2023-02-10T07:18:51.962Z,64.30
2023-02-10T07:21:25.583Z,64.30
2023-02-10T07:23:59.377Z,64.20
2023-02-10T07:26:33.082Z,64.20
2023-02-10T07:29:07.957Z,64.20
2023-02-10T07:31:41.421Z,64.30
2023-02-10T07:34:15.223Z,64.90
2023-02-10T07:36:54.942Z,64.30
2023-02-10T07:39:29.298Z,64.20
2023-02-10T07:42:03.112Z,64.20
2023-02-10T07:44:38.611Z,64.10
2023-02-10T07:47:12.740Z,64.20
2023-02-10T07:49:46.389Z,64.10
2023-02-10T07:52:20.163Z,64.20
2023-02-10T07:54:53.693Z,64.30
2023-02-10T07:57:27.669Z,64.30
2023-02-10T08:00:02.587Z,64.50
2023-02-10T08:02:36.179Z,64.50
2023-02-10T08:05:10.258Z,64.60
2023-02-10T08:07:43.911Z,64.70
2023-02-10T08:10:17.644Z,65.60
2023-02-10T08:12:51.549Z,64.90
2023-02-10T08:15:26.630Z,65.20
2023-02-10T08:18:01.407Z,65.30
2023-02-10T08:20:35.291Z,65.50
2023-02-10T08:23:12.375Z,65.60
2023-02-10T08:25:46.730Z,65.60
2023-02-10T08:28:26.275Z,65.80
2023-02-10T08:31:04.189Z,65.80
2023-02-10T08:33:47.486Z,66.60
2023-02-10T08:36:23.848Z,65.80
2023-02-10T08:38:58.593Z,65.90
2023-02-10T08:41:33.461Z,66.00
2023-02-10T08:44:08.962Z,66.10
2023-02-10T08:46:44.295Z,66.20
2023-02-10T08:49:18.015Z,66.30
2023-02-10T08:51:51.623Z,66.20
2023-02-10T08:54:25.251Z,66.10
2023-02-10T08:56:59.944Z,66.80
2023-02-10T08:59:33.599Z,66.00
2023-02-10T09:02:09.378Z,65.80
2023-02-10T09:04:43.956Z,66.20
2023-02-10T09:07:17.482Z,65.40
2023-02-10T09:09:50.937Z,65.30
2023-02-10T09:12:24.679Z,65.20
2023-02-10T09:14:58.672Z,65.00
2023-02-10T09:17:33.797Z,64.90
2023-02-10T09:20:09.250Z,64.80
2023-02-10T09:22:42.856Z,64.70
2023-02-10T09:25:16.869Z,65.10
2023-02-10T09:27:50.514Z,64.30
2023-02-10T09:30:24.181Z,64.30
2023-02-10T09:32:59.396Z,64.20
2023-02-10T09:35:33.153Z,64.20
2023-02-10T09:38:06.524Z,64.20
2023-02-10T09:40:52.193Z,64.30
2023-02-10T09:43:55.641Z,64.40
2023-02-10T09:46:49.329Z,64.50
2023-02-10T09:49:54.027Z,64.60
2023-02-10T09:52:44.123Z,65.30
2023-02-10T09:55:25.791Z,64.80
2023-02-10T09:58:04.886Z,64.70
2023-02-10T10:00:43.768Z,64.80
2023-02-10T10:03:21.978Z,64.80
2023-02-10T10:06:09.997Z,64.90
2023-02-10T10:08:55.815Z,65.20
2023-02-10T10:11:39.457Z,65.20
2023-02-10T10:14:21.984Z,65.20
2023-02-10T10:17:13.634Z,65.20
2023-02-10T10:20:05.412Z,65.10
2023-02-10T10:22:55.041Z,65.10
2023-02-10T10:26:04.478Z,64.90
2023-02-10T10:28:55.580Z,64.70
2023-02-10T10:31:33.075Z,64.60
2023-02-10T10:34:16.253Z,64.60
2023-02-10T10:36:53.985Z,64.60
2023-02-10T10:39:38.074Z,64.30
2023-02-10T10:42:23.414Z,63.90
2023-02-10T10:45:06.614Z,63.70
2023-02-10T10:47:47.066Z,63.70
2023-02-10T10:50:24.720Z,63.60
2023-02-10T10:53:01.584Z,63.70
2023-02-10T10:55:42.201Z,63.50
2023-02-10T10:58:28.470Z,63.60
2023-02-10T11:01:05.008Z,63.50
2023-02-10T11:03:38.845Z,63.20
2023-02-10T11:06:18.982Z,62.80
2023-02-10T11:09:00.415Z,62.40
2023-02-10T11:11:40.104Z,62.60
2023-02-10T11:14:18.666Z,62.80
2023-02-10T11:16:58.025Z,62.90
2023-02-10T11:19:47.648Z,62.90
2023-02-10T11:22:23.893Z,62.70
2023-02-10T11:24:59.565Z,62.30
2023-02-10T11:27:35.009Z,62.30
2023-02-10T11:30:27.570Z,62.10
2023-02-10T11:33:04.303Z,62.10
2023-02-10T11:35:38.344Z,62.00
2023-02-10T11:38:23.587Z,62.00
2023-02-10T11:41:00.496Z,62.10
2023-02-10T11:43:42.660Z,62.10
2023-02-10T11:46:23.937Z,61.70
2023-02-10T11:49:01.075Z,61.40
2023-02-10T11:51:35.196Z,61.00
2023-02-10T11:54:13.777Z,60.60
2023-02-10T11:57:14.572Z,60.60
2023-02-10T12:00:00.922Z,60.80
2023-02-10T12:03:15.461Z,60.80
2023-02-10T12:05:56.596Z,60.60
2023-02-10T12:08:43.064Z,60.60
2023-02-10T12:11:25.728Z,60.60
2023-02-10T12:14:08.994Z,60.50
2023-02-10T12:16:52.554Z,60.20
2023-02-10T12:19:40.969Z,60.10
2023-02-10T12:22:28.378Z,60.00
2023-02-10T12:25:19.878Z,60.00
2023-02-10T12:28:04.210Z,59.80
2023-02-10T12:30:51.369Z,59.80
2023-02-10T12:33:48.145Z,59.80
2023-02-10T12:36:31.461Z,59.60
2023-02-10T12:39:17.529Z,59.50
2023-02-10T12:42:09.458Z,59.40
2023-02-10T12:44:55.941Z,59.40
2023-02-10T12:47:41.730Z,59.20
2023-02-10T12:51:16.339Z,59.00
2023-02-10T12:53:56.968Z,58.60
2023-02-10T12:56:42.719Z,58.60
2023-02-10T12:59:24.179Z,58.40
2023-02-10T13:02:03.213Z,58.20
2023-02-10T13:04:46.683Z,58.00
2023-02-10T13:07:37.297Z,58.00
2023-02-10T13:10:28.839Z,57.90
2023-02-10T13:13:08.306Z,57.90
2023-02-10T13:15:48.946Z,58.00
2023-02-10T13:18:26.096Z,58.10
2023-02-10T13:21:12.361Z,58.20
2023-02-10T13:23:51.848Z,58.10
2023-02-10T13:26:53.307Z,58.10
2023-02-10T13:29:40.075Z,57.90
2023-02-10T13:32:36.950Z,57.60
2023-02-10T13:35:18.526Z,57.00
2023-02-10T13:37:56.213Z,56.80
2023-02-10T13:40:48.527Z,56.60
2023-02-10T13:43:34.064Z,56.10
2023-02-10T13:46:09.700Z,55.70
2023-02-10T13:48:45.523Z,55.70
2023-02-10T13:51:19.180Z,55.40
2023-02-10T13:53:53.257Z,55.20
2023-02-10T13:56:32.689Z,55.40
2023-02-10T13:59:25.461Z,55.10
2023-02-10T14:02:21.448Z,55.00
2023-02-10T14:04:58.115Z,55.00
2023-02-10T14:07:37.993Z,55.20
2023-02-10T14:10:33.738Z,55.60
2023-02-10T14:13:27.861Z,55.00
2023-02-10T14:16:07.081Z,55.00
2023-02-10T14:18:43.028Z,55.10
2023-02-10T14:21:20.427Z,55.80
2023-02-10T14:23:59.289Z,55.30
2023-02-10T14:26:37.851Z,55.50
2023-02-10T14:29:18.901Z,55.60
2023-02-10T14:31:57.815Z,55.60
2023-02-10T14:34:34.773Z,55.60
2023-02-10T14:37:19.689Z,55.70
2023-02-10T14:39:56.973Z,55.70
2023-02-10T14:42:33.453Z,55.70
2023-02-10T14:45:24.799Z,55.70
2023-02-10T14:48:02.155Z,55.60
2023-02-10T14:50:39.750Z,55.70
2023-02-10T14:53:20.374Z,55.60
2023-02-10T14:55:57.661Z,55.70
2023-02-10T14:58:31.084Z,55.70
2023-02-10T15:01:15.703Z,55.80
2023-02-10T15:03:50.967Z,56.10
2023-02-10T15:06:31.828Z,55.70
2023-02-10T15:09:10.613Z,55.60
2023-02-10T15:12:06.135Z,55.70
2023-02-10T15:14:56.093Z,55.70
2023-02-10T15:17:39.015Z,55.60
2023-02-10T15:20:29.972Z,55.70
2023-02-10T15:23:30.686Z,55.60
2023-02-10T15:26:20.671Z,55.70
2023-02-10T15:29:07.768Z,55.70
2023-02-10T15:31:46.942Z,55.70
2023-02-10T15:34:27.097Z,55.70
2023-02-10T15:37:05.773Z,55.70
2023-02-10T15:39:41.361Z,55.70
2023-02-10T15:42:24.835Z,55.70
2023-02-10T15:45:16.040Z,55.60
2023-02-10T15:47:56.154Z,55.70
2023-02-10T15:50:34.478Z,55.70
2023-02-10T15:53:13.884Z,56.20
2023-02-10T15:55:47.614Z,55.70
2023-02-10T15:58:21.342Z,55.60
2023-02-10T16:00:57.622Z,55.60
2023-02-10T16:03:32.552Z,55.60
2023-02-10T16:06:16.282Z,55.60
2023-02-10T16:08:49.849Z,55.60
2023-02-10T16:11:24.917Z,55.60
2023-02-10T16:13:58.515Z,55.60
2023-02-10T16:16:32.391Z,55.60
2023-02-10T16:19:16.570Z,55.50
2023-02-10T16:21:56.891Z,55.60
2023-02-10T16:24:33.992Z,55.60
2023-02-10T16:27:07.826Z,55.60
2023-02-10T16:29:42.216Z,55.60
2023-02-10T16:32:16.115Z,56.10
2023-02-10T16:34:49.611Z,55.60
2023-02-10T16:37:25.283Z,56.10
2023-02-10T16:39:58.738Z,55.60
2023-02-10T16:42:32.288Z,55.60
2023-02-10T16:45:06.912Z,55.40
2023-02-10T16:47:40.837Z,55.80
2023-02-10T16:50:25.988Z,55.60
2023-02-10T16:53:01.894Z,55.80
2023-02-10T16:55:35.565Z,55.90
2023-02-10T16:58:15.007Z,56.00
2023-02-10T17:00:48.993Z,55.90
2023-02-10T17:03:23.513Z,55.90
2023-02-10T17:05:57.191Z,56.00
2023-02-10T17:08:32.955Z,56.00
2023-02-10T17:11:07.017Z,56.10
2023-02-10T17:13:42.426Z,56.10
2023-02-10T17:16:29.494Z,56.10
2023-02-10T17:19:03.324Z,56.30
2023-02-10T17:21:37.440Z,56.40
2023-02-10T17:24:14.158Z,56.90
2023-02-10T17:26:48.706Z,57.10
2023-02-10T17:29:22.766Z,56.60
2023-02-10T17:32:00.662Z,56.70
2023-02-10T17:34:36.674Z,56.80
2023-02-10T17:37:10.741Z,56.80
2023-02-10T17:39:46.875Z,57.00
2023-02-10T17:42:22.256Z,56.90
2023-02-10T17:44:55.941Z,56.90
2023-02-10T17:47:30.522Z,56.90
2023-02-10T17:50:04.867Z,56.90
2023-02-10T17:52:38.673Z,56.90
2023-02-10T17:55:21.852Z,57.00
2023-02-10T17:57:56.420Z,56.90
2023-02-10T18:00:30.008Z,57.00
2023-02-10T18:03:04.180Z,56.90
2023-02-10T18:05:40.623Z,57.00
2023-02-10T18:08:14.063Z,57.10
2023-02-10T18:10:50.880Z,57.10
2023-02-10T18:13:24.689Z,57.20
2023-02-10T18:15:58.277Z,57.20
2023-02-10T18:18:32.000Z,57.20
2023-02-10T18:21:06.643Z,57.30
2023-02-10T18:23:41.035Z,57.30
2023-02-10T18:26:17.599Z,57.90
2023-02-10T18:28:51.552Z,57.40
2023-02-10T18:31:25.353Z,57.40
2023-02-10T18:33:59.564Z,57.50
2023-02-10T18:36:34.712Z,57.60
2023-02-10T18:39:08.279Z,57.70
2023-02-10T18:41:43.885Z,57.70
2023-02-10T18:44:17.813Z,57.80
2023-02-10T18:46:52.075Z,57.90
2023-02-10T18:49:25.758Z,58.40
2023-02-10T18:51:59.488Z,58.10
2023-02-10T18:54:33.417Z,57.80
2023-02-10T18:57:08.535Z,58.30
2023-02-10T18:59:42.901Z,58.50
2023-02-10T19:02:16.408Z,58.80
2023-02-10T19:04:50.187Z,58.80
2023-02-10T19:07:24.119Z,59.00
2023-02-10T19:09:57.843Z,59.10
2023-02-10T19:12:32.971Z,59.30
2023-02-10T19:15:07.639Z,59.30
2023-02-10T19:17:42.876Z,59.60
2023-02-10T19:20:16.731Z,59.70
2023-02-10T19:22:52.190Z,59.80
2023-02-10T19:25:25.893Z,59.90
2023-02-10T19:28:00.987Z,59.90
2023-02-10T19:30:34.740Z,60.60
2023-02-10T19:33:08.738Z,60.00
2023-02-10T19:35:49.384Z,60.10
2023-02-10T19:38:23.157Z,60.40
2023-02-10T19:41:06.062Z,60.30
2023-02-10T19:43:42.427Z,60.50
2023-02-10T19:46:16.773Z,60.30
2023-02-10T19:48:50.746Z,60.50
2023-02-10T19:51:25.741Z,59.90
2023-02-10T19:53:59.434Z,60.50
2023-02-10T19:56:34.203Z,60.40
2023-02-10T19:59:10.638Z,60.50
2023-02-10T20:01:44.466Z,60.70
2023-02-10T20:04:17.938Z,60.90
2023-02-10T20:06:51.555Z,60.80
2023-02-10T20:09:26.337Z,60.90
2023-02-10T20:12:00.106Z,61.10
2023-02-10T20:14:35.925Z,61.10
2023-02-10T20:17:09.509Z,61.10
2023-02-10T20:19:42.966Z,61.10
2023-02-10T20:22:16.682Z,61.30
2023-02-10T20:24:50.180Z,61.30
2023-02-10T20:27:25.785Z,61.40
2023-02-10T20:30:02.675Z,61.40
2023-02-10T20:32:37.299Z,61.60
2023-02-10T20:35:11.026Z,61.60
2023-02-10T20:37:44.729Z,61.80
2023-02-10T20:40:18.513Z,61.70
2023-02-10T20:42:53.184Z,62.00
2023-02-10T20:45:28.669Z,62.00
2023-02-10T20:48:02.697Z,62.10
2023-02-10T20:50:36.790Z,62.00
2023-02-10T20:53:12.249Z,61.40
2023-02-10T20:55:48.435Z,62.10
2023-02-10T20:58:23.902Z,62.20
2023-02-10T21:01:02.702Z,62.30
2023-02-10T21:03:40.970Z,62.30
2023-02-10T21:06:17.357Z,62.20
2023-02-10T21:08:53.268Z,62.30
2023-02-10T21:11:29.973Z,62.30
2023-02-10T21:14:03.601Z,62.40
2023-02-10T21:16:38.980Z,62.30
2023-02-10T21:19:12.449Z,62.40
2023-02-10T21:21:45.896Z,62.40
2023-02-10T21:24:21.477Z,62.40
2023-02-10T21:26:57.953Z,62.40
2023-02-10T21:29:31.502Z,61.80
2023-02-10T21:32:06.790Z,62.30
2023-02-10T21:34:40.428Z,62.40
2023-02-10T21:37:14.298Z,62.40
2023-02-10T21:39:47.977Z,62.40
2023-02-10T21:42:21.852Z,62.40
2023-02-10T21:44:57.431Z,62.50
2023-02-10T21:47:32.290Z,62.40
2023-02-10T21:50:06.784Z,62.50
2023-02-10T21:52:40.606Z,62.70
2023-02-10T21:55:14.182Z,62.60
2023-02-10T21:57:48.200Z,62.60
2023-02-10T22:00:22.142Z,62.80
2023-02-10T22:02:57.694Z,62.80
2023-02-10T22:05:31.275Z,62.80
2023-02-10T22:08:04.662Z,62.90
2023-02-10T22:10:39.212Z,62.90
2023-02-10T22:13:14.076Z,63.00
2023-02-10T22:15:54.414Z,63.10
2023-02-10T22:18:29.588Z,63.20
2023-02-10T22:21:07.043Z,63.00
2023-02-10T22:23:42.604Z,63.10
2023-02-10T22:26:21.532Z,63.10
2023-02-10T22:28:56.541Z,63.20
2023-02-10T22:31:33.990Z,63.30
2023-02-10T22:34:09.270Z,63.20
2023-02-10T22:36:43.270Z,63.30
2023-02-10T22:39:17.671Z,63.30
2023-02-10T22:41:52.516Z,63.30
2023-02-10T22:44:26.172Z,63.50
2023-02-10T22:46:59.714Z,63.50
2023-02-10T22:49:34.825Z,63.50
2023-02-10T22:52:08.803Z,63.50
2023-02-10T22:54:42.489Z,63.50
2023-02-10T22:57:16.131Z,63.50
2023-02-10T22:59:49.761Z,63.50
2023-02-10T23:02:23.273Z,63.50
2023-02-10T23:05:00.871Z,63.40
2023-02-10T23:07:34.353Z,63.70
2023-02-10T23:10:08.418Z,63.60
2023-02-10T23:12:41.880Z,63.80
2023-02-10T23:15:15.233Z,63.80
2023-02-10T23:17:48.557Z,63.90
2023-02-10T23:20:24.024Z,64.00
2023-02-10T23:22:57.845Z,64.00
2023-02-10T23:25:31.297Z,64.10
2023-02-10T23:28:04.968Z,64.10
2023-02-10T23:30:38.481Z,64.20
2023-02-10T23:33:13.856Z,64.20
2023-02-10T23:35:52.165Z,64.30
2023-02-10T23:38:25.663Z,64.30
2023-02-10T23:40:59.463Z,64.30
2023-02-10T23:43:33.300Z,64.30
2023-02-10T23:46:08.632Z,64.30
2023-02-10T23:48:42.833Z,64.20
2023-02-10T23:51:21.819Z,64.30
2023-02-10T23:53:55.417Z,64.40
2023-02-10T23:56:29.040Z,64.30
2023-02-10T23:59:02.749Z,64.30
